Time;durP1;ratioP1;P1;durP2;ratioP2;P2;SDS_P1;SDS_P2;PMS_P1;PMS_P2;Temp;Humidity;BMP_temperature;BMP_pressure;BME280_temperature;BME280_humidity;BME280_pressure;Samples;Min_cycle;Max_cycle;Signal;HPM_P1;HPM_P2
2020/12/13 00:00:22;;;;;;;73.80;30.30;;;8.10;99.90;;;;;;4959864;28;20267;-78
2020/12/13 00:02:48;;;;;;;70.27;30.63;;;8.10;99.90;;;;;;4975974;28;20222;-78
2020/12/13 00:05:13;;;;;;;70.77;30.57;;;8.10;99.90;;;;;;4975841;28;20644;-77
2020/12/13 00:07:39;;;;;;;65.80;29.67;;;8.10;99.90;;;;;;4975928;28;20187;-79
2020/12/13 00:10:04;;;;;;;78.50;30.87;;;8.10;99.90;;;;;;4991892;28;20232;-78
2020/12/13 00:12:30;;;;;;;74.63;30.80;;;8.00;99.90;;;;;;4975778;28;20183;-77
2020/12/13 00:14:56;;;;;;;69.97;31.23;;;8.00;99.90;;;;;;4975830;28;20172;-76
2020/12/13 00:17:21;;;;;;;78.77;31.53;;;7.90;99.90;;;;;;4975727;28;20183;-75
2020/12/13 00:19:47;;;;;;;82.00;33.37;;;8.00;99.90;;;;;;4959588;28;20184;-78
2020/12/13 00:22:13;;;;;;;79.07;33.27;;;8.00;99.90;;;;;;4992645;28;20202;-77
2020/12/13 00:24:38;;;;;;;76.40;31.67;;;8.00;99.90;;;;;;4991791;28;20223;-78
2020/12/13 00:27:04;;;;;;;73.40;33.47;;;8.00;99.90;;;;;;4959336;28;20180;-78
2020/12/13 00:29:29;;;;;;;73.63;32.40;;;8.00;99.90;;;;;;4959291;28;20210;-77
2020/12/13 00:31:55;;;;;;;78.87;34.40;;;8.00;99.90;;;;;;4992169;28;20184;-77
2020/12/13 00:34:20;;;;;;;74.90;32.47;;;8.00;99.90;;;;;;4959458;28;20196;-78
2020/12/13 00:36:51;;;;;;;80.23;32.73;;;7.90;99.90;;;;;;4975395;28;20529;-76
2020/12/13 00:39:16;;;;;;;81.43;33.50;;;7.90;99.90;;;;;;4975403;28;20181;-76
2020/12/13 00:41:44;;;;;;;75.17;31.93;;;8.00;99.90;;;;;;4975410;28;20238;-77
2020/12/13 00:44:10;;;;;;;78.20;34.23;;;7.90;99.90;;;;;;4959313;28;20262;-77
2020/12/13 00:46:39;;;;;;;86.90;34.93;;;8.00;99.90;;;;;;4992614;28;20184;-77
2020/12/13 00:49:04;;;;;;;75.80;33.20;;;8.10;99.90;;;;;;4959512;28;20206;-77
2020/12/13 00:51:30;;;;;;;75.53;33.17;;;8.10;99.90;;;;;;4959315;28;20539;-78
2020/12/13 00:53:56;;;;;;;78.47;33.73;;;8.10;99.90;;;;;;4959854;28;20651;-78
2020/12/13 00:56:21;;;;;;;79.03;33.80;;;8.10;99.90;;;;;;4979179;28;20751;-77
2020/12/13 00:58:47;;;;;;;79.93;33.03;;;8.00;99.90;;;;;;4963084;28;20554;-77
2020/12/13 01:01:12;;;;;;;81.20;34.23;;;8.10;99.90;;;;;;4962911;28;20177;-76
2020/12/13 01:03:38;;;;;;;84.30;33.20;;;8.20;99.90;;;;;;4979102;28;20205;-78
2020/12/13 01:06:03;;;;;;;77.20;33.17;;;8.20;99.90;;;;;;4962759;28;20260;-76
2020/12/13 01:08:29;;;;;;;79.97;35.40;;;8.20;99.90;;;;;;4978873;28;20191;-77
2020/12/13 01:10:54;;;;;;;87.57;35.77;;;8.20;99.90;;;;;;4962967;28;20239;-77
2020/12/13 01:13:20;;;;;;;91.30;35.23;;;8.20;99.90;;;;;;4962709;28;20262;-77
2020/12/13 01:15:48;;;;;;;90.37;35.50;;;8.20;99.90;;;;;;4962907;28;20183;-77
2020/12/13 01:18:13;;;;;;;91.33;35.77;;;8.10;99.90;;;;;;4996234;28;20713;-76
2020/12/13 01:20:39;;;;;;;91.83;35.03;;;8.20;99.90;;;;;;4978956;28;20270;-75
2020/12/13 01:23:05;;;;;;;82.83;34.03;;;8.20;99.90;;;;;;4979833;28;20204;-76
2020/12/13 01:25:30;;;;;;;82.47;34.60;;;8.20;99.90;;;;;;4979662;28;20187;-75
2020/12/13 01:27:56;;;;;;;93.37;35.50;;;8.30;99.90;;;;;;4962988;28;20567;-77
2020/12/13 01:30:21;;;;;;;85.27;35.40;;;8.30;99.90;;;;;;4963227;28;20201;-77
2020/12/13 01:32:47;;;;;;;98.97;36.00;;;8.20;99.90;;;;;;4996390;28;20246;-76
2020/12/13 01:35:13;;;;;;;91.43;36.70;;;8.30;99.90;;;;;;4962548;28;20204;-77
2020/12/13 01:37:38;;;;;;;92.70;37.13;;;8.30;99.90;;;;;;4962457;28;20639;-75
2020/12/13 01:40:07;;;;;;;89.27;36.80;;;8.30;99.90;;;;;;4962494;28;20307;-77
2020/12/13 01:42:40;;;;;;;90.03;37.17;;;8.30;99.90;;;;;;4962479;28;20274;-77
2020/12/13 01:45:10;;;;;;;85.53;35.27;;;8.30;99.90;;;;;;4962421;28;20275;-79
2020/12/13 01:47:36;;;;;;;94.93;36.13;;;8.30;99.90;;;;;;4978333;28;20175;-75
2020/12/13 01:50:02;;;;;;;89.60;36.53;;;8.30;99.90;;;;;;4962134;28;20706;-77
2020/12/13 01:52:44;;;;;;;84.37;35.17;;;8.20;99.90;;;;;;4994295;28;20178;-76
2020/12/13 01:55:10;;;;;;;84.27;34.80;;;8.30;99.90;;;;;;4980485;28;20158;-78
2020/12/13 01:57:37;;;;;;;85.70;35.47;;;8.20;99.90;;;;;;4961952;28;20180;-76
2020/12/13 02:00:11;;;;;;;93.27;36.43;;;8.30;99.90;;;;;;4978398;28;20658;-78
2020/12/13 02:02:58;;;;;;;91.93;35.77;;;8.20;99.90;;;;;;4978153;28;20584;-75
2020/12/13 02:05:24;;;;;;;85.77;35.50;;;8.30;99.90;;;;;;4993434;28;20179;-78
2020/12/13 02:07:49;;;;;;;93.27;35.97;;;8.20;99.90;;;;;;4977718;28;20189;-77
2020/12/13 02:10:15;;;;;;;87.33;35.33;;;8.20;99.90;;;;;;4961588;28;20211;-78
2020/12/13 02:12:40;;;;;;;83.73;35.70;;;8.30;99.90;;;;;;4978011;28;20176;-78
2020/12/13 02:15:07;;;;;;;87.17;34.77;;;8.30;99.90;;;;;;4977862;28;20693;-76
2020/12/13 02:17:34;;;;;;;81.43;34.70;;;8.30;99.90;;;;;;4977739;28;20512;-77
2020/12/13 02:20:10;;;;;;;95.63;35.70;;;8.20;99.90;;;;;;4977881;28;20176;-78
2020/12/13 02:22:53;;;;;;;92.47;34.60;;;8.20;99.90;;;;;;4977726;28;20176;-78
2020/12/13 02:25:21;;;;;;;87.40;35.43;;;8.20;99.90;;;;;;4977896;28;20170;-78
2020/12/13 02:27:48;;;;;;;82.37;34.73;;;8.10;99.90;;;;;;4961574;28;20183;-77
2020/12/13 02:30:13;;;;;;;85.43;35.13;;;8.10;99.90;;;;;;4977303;28;20200;-77
2020/12/13 02:32:39;;;;;;;83.37;33.27;;;8.10;99.90;;;;;;4993642;28;20652;-77
2020/12/13 02:35:05;;;;;;;82.20;34.43;;;8.20;99.90;;;;;;4977478;28;20173;-78
2020/12/13 02:37:30;;;;;;;82.10;34.80;;;8.20;99.90;;;;;;4979019;28;20180;-78
2020/12/13 02:39:56;;;;;;;83.77;32.97;;;8.10;99.90;;;;;;4998502;28;20523;-77
2020/12/13 02:42:21;;;;;;;87.90;36.57;;;8.10;99.90;;;;;;4954263;28;20271;-78
2020/12/13 02:44:47;;;;;;;88.10;34.67;;;8.10;99.90;;;;;;4961153;28;20200;-78
2020/12/13 02:47:12;;;;;;;84.10;35.17;;;8.20;99.90;;;;;;4961046;28;20202;-77
2020/12/13 02:49:41;;;;;;;87.97;36.00;;;8.30;99.90;;;;;;4961147;28;20211;-77
2020/12/13 02:52:08;;;;;;;83.67;34.43;;;8.20;99.90;;;;;;4977203;28;20587;-76
2020/12/13 02:54:33;;;;;;;87.30;34.53;;;8.20;99.90;;;;;;4993415;28;20305;-77
2020/12/13 02:56:59;;;;;;;91.70;35.47;;;8.20;99.90;;;;;;4976957;28;20173;-77
2020/12/13 02:59:24;;;;;;;83.97;34.93;;;8.20;99.90;;;;;;4977209;28;20842;-78
2020/12/13 03:01:50;;;;;;;97.43;36.57;;;8.20;99.90;;;;;;4960870;28;20535;-77
2020/12/13 03:04:15;;;;;;;90.17;34.43;;;8.20;99.90;;;;;;4976832;28;20558;-76
2020/12/13 03:06:41;;;;;;;92.30;36.07;;;8.30;99.90;;;;;;4960547;28;20184;-78
2020/12/13 03:09:06;;;;;;;85.80;35.20;;;8.20;99.90;;;;;;4992922;28;20306;-78
2020/12/13 03:11:32;;;;;;;87.27;33.80;;;8.10;99.90;;;;;;4960847;28;20204;-76
2020/12/13 03:13:57;;;;;;;83.97;35.63;;;8.20;99.90;;;;;;4976720;28;20193;-77
2020/12/13 03:16:23;;;;;;;84.80;33.87;;;8.20;99.90;;;;;;4976441;28;20211;-77
2020/12/13 03:18:49;;;;;;;78.67;32.87;;;8.20;99.90;;;;;;4960599;28;20174;-77
2020/12/13 03:21:14;;;;;;;81.13;33.57;;;8.30;99.90;;;;;;4992894;28;20674;-77
2020/12/13 03:23:40;;;;;;;81.40;34.57;;;8.40;99.90;;;;;;4960351;28;20266;-77
2020/12/13 03:26:05;;;;;;;82.20;33.57;;;8.30;99.90;;;;;;4960454;28;20230;-78
2020/12/13 03:28:31;;;;;;;81.07;32.53;;;8.30;99.90;;;;;;4960274;28;20180;-78
2020/12/13 03:30:57;;;;;;;84.93;34.20;;;8.30;99.90;;;;;;4976164;28;20173;-78
2020/12/13 03:33:22;;;;;;;84.47;34.20;;;8.20;99.90;;;;;;4976292;28;20196;-78
2020/12/13 03:35:48;;;;;;;81.63;35.43;;;8.20;99.90;;;;;;4976357;28;20172;-76
2020/12/13 03:38:14;;;;;;;81.17;34.60;;;8.40;99.90;;;;;;4976235;28;20173;-78
2020/12/13 03:40:39;;;;;;;84.93;34.17;;;8.30;99.90;;;;;;4960161;28;20211;-77
2020/12/13 03:43:05;;;;;;;77.73;33.90;;;8.20;99.90;;;;;;4976192;28;20207;-77
2020/12/13 03:45:30;;;;;;;73.93;31.80;;;8.30;99.90;;;;;;4992418;28;20308;-78
2020/12/13 03:47:56;;;;;;;72.97;32.50;;;8.30;99.90;;;;;;4976059;28;20175;-78
2020/12/13 03:50:22;;;;;;;74.53;32.97;;;8.30;99.90;;;;;;4976328;28;20200;-78
2020/12/13 03:52:47;;;;;;;69.43;30.83;;;8.20;99.90;;;;;;4975342;28;20214;-77
2020/12/13 03:55:13;;;;;;;67.30;30.90;;;8.20;99.90;;;;;;5027971;23;20315;-77
2020/12/13 03:57:38;;;;;;;71.97;31.43;;;8.20;99.90;;;;;;4975691;28;20216;-76
2020/12/13 04:00:04;;;;;;;67.67;31.53;;;8.20;99.90;;;;;;4975896;28;20184;-77
2020/12/13 04:02:30;;;;;;;69.10;32.03;;;8.30;99.90;;;;;;4975759;28;20180;-76
2020/12/13 04:04:55;;;;;;;68.63;31.23;;;8.20;99.90;;;;;;4975540;28;20207;-77
2020/12/13 04:07:21;;;;;;;71.07;31.20;;;8.20;99.90;;;;;;4992833;28;20199;-77
2020/12/13 04:09:46;;;;;;;69.20;31.90;;;8.20;99.90;;;;;;4975617;28;20596;-76
2020/12/13 04:12:12;;;;;;;69.37;32.37;;;8.20;99.90;;;;;;4991866;28;20199;-77
2020/12/13 04:14:37;;;;;;;67.73;31.13;;;8.20;99.90;;;;;;4992903;28;20755;-76
2020/12/13 04:17:03;;;;;;;69.13;31.97;;;8.20;99.90;;;;;;4991662;28;20259;-76
2020/12/13 04:19:31;;;;;;;73.33;32.27;;;8.10;99.90;;;;;;4992985;28;20183;-77
2020/12/13 04:21:57;;;;;;;72.67;31.57;;;8.10;99.90;;;;;;4975797;28;20230;-76
2020/12/13 04:24:23;;;;;;;62.17;31.07;;;8.10;99.90;;;;;;4959447;28;20200;-77
2020/12/13 04:26:48;;;;;;;71.33;32.13;;;8.20;99.90;;;;;;4991483;28;20270;-76
2020/12/13 04:29:14;;;;;;;71.50;31.63;;;8.10;99.90;;;;;;4991174;28;20232;-76
2020/12/13 04:31:39;;;;;;;62.50;29.97;;;8.10;99.90;;;;;;4959432;28;20183;-77
2020/12/13 04:34:05;;;;;;;66.60;30.07;;;8.10;99.90;;;;;;4959312;28;20196;-77
2020/12/13 04:36:30;;;;;;;66.03;31.30;;;8.10;99.90;;;;;;4975114;28;20176;-76
2020/12/13 04:38:56;;;;;;;65.40;32.07;;;8.00;99.90;;;;;;4992627;28;20664;-78
2020/12/13 04:41:21;;;;;;;65.70;30.30;;;8.00;99.90;;;;;;4975529;28;20183;-76
2020/12/13 04:43:47;;;;;;;69.07;31.30;;;8.00;99.90;;;;;;4975417;28;20203;-76
2020/12/13 04:46:13;;;;;;;62.63;30.43;;;8.00;99.90;;;;;;4959145;28;20175;-76
2020/12/13 04:48:38;;;;;;;68.50;31.30;;;8.00;99.90;;;;;;4975339;28;20195;-76
2020/12/13 04:51:04;;;;;;;65.40;30.93;;;7.90;99.90;;;;;;4975443;28;20275;-77
2020/12/13 04:53:30;;;;;;;65.10;30.73;;;7.90;99.90;;;;;;4975289;28;20618;-76
2020/12/13 04:55:57;;;;;;;66.90;31.67;;;7.90;99.90;;;;;;4975165;28;20259;-76
2020/12/13 04:58:23;;;;;;;64.43;30.37;;;7.90;99.90;;;;;;4959089;28;20214;-76
2020/12/13 05:01:02;;;;;;;63.67;31.40;;;7.90;99.90;;;;;;4975408;28;20646;-77
2020/12/13 05:03:27;;;;;;;60.77;29.20;;;7.90;99.90;;;;;;4975042;28;20630;-76
2020/12/13 05:05:58;;;;;;;67.63;30.03;;;7.90;99.90;;;;;;4975298;28;20257;-76
2020/12/13 05:08:26;;;;;;;67.67;30.00;;;7.80;99.90;;;;;;4975682;28;20250;-76
2020/12/13 05:10:52;;;;;;;63.40;29.30;;;7.80;99.90;;;;;;4959259;28;20211;-76
2020/12/13 05:13:17;;;;;;;66.23;29.97;;;7.80;99.90;;;;;;4991593;28;20183;-76
2020/12/13 05:15:43;;;;;;;56.93;28.67;;;7.80;99.90;;;;;;4959046;28;20192;-76
2020/12/13 05:18:08;;;;;;;58.57;28.87;;;7.70;99.90;;;;;;4991262;28;20180;-77
2020/12/13 05:20:34;;;;;;;66.47;30.13;;;7.70;99.90;;;;;;4992407;28;20231;-76
2020/12/13 05:22:59;;;;;;;65.23;29.53;;;7.70;99.90;;;;;;4975058;28;20180;-77
2020/12/13 05:25:43;;;;;;;65.37;29.80;;;7.80;99.90;;;;;;4974801;28;20213;-77
2020/12/13 05:28:09;;;;;;;60.20;29.87;;;7.80;99.90;;;;;;4975033;28;20706;-76
2020/12/13 05:30:42;;;;;;;62.33;27.97;;;7.90;99.90;;;;;;4989686;28;20223;-77
2020/12/13 05:33:13;;;;;;;60.27;29.23;;;7.80;99.90;;;;;;4991175;28;20160;-76
2020/12/13 05:35:39;;;;;;;61.13;29.33;;;7.80;99.90;;;;;;4975120;28;20226;-77
2020/12/13 05:38:11;;;;;;;63.37;30.47;;;7.70;99.90;;;;;;4990940;28;20177;-76
2020/12/13 05:40:37;;;;;;;64.07;29.60;;;7.70;99.90;;;;;;4991123;28;20227;-76
2020/12/13 05:43:10;;;;;;;65.83;30.23;;;7.70;99.90;;;;;;4994486;28;20544;-77
2020/12/13 05:51:02;;;;;;;58.80;29.17;;;7.80;99.90;;;;;;4994619;28;20199;-77
2020/12/13 05:53:27;;;;;;;64.97;30.63;;;7.80;99.90;;;;;;4995422;28;20620;-76
2020/12/13 05:55:53;;;;;;;64.30;31.27;;;7.80;99.90;;;;;;4994247;28;20206;-77
2020/12/13 05:58:24;;;;;;;68.07;31.73;;;7.80;99.90;;;;;;4977662;28;20180;-76
2020/12/13 06:00:51;;;;;;;60.83;30.73;;;7.80;99.90;;;;;;4974521;28;20648;-76
2020/12/13 06:03:18;;;;;;;65.20;31.63;;;7.80;99.90;;;;;;4975405;28;20562;-76
2020/12/13 06:05:44;;;;;;;68.50;32.03;;;7.70;99.90;;;;;;4974362;28;20573;-76
2020/12/13 06:08:13;;;;;;;61.70;31.37;;;7.70;99.90;;;;;;4974491;28;20185;-76
2020/12/13 06:10:39;;;;;;;63.67;30.50;;;7.70;99.90;;;;;;4960814;28;20555;-76
2020/12/13 06:13:06;;;;;;;64.57;30.87;;;7.70;99.90;;;;;;4993824;28;20178;-76
2020/12/13 06:15:32;;;;;;;66.93;30.20;;;7.70;99.90;;;;;;4993898;28;20192;-76
2020/12/13 06:18:02;;;;;;;67.73;30.37;;;7.70;99.90;;;;;;4977545;28;20176;-76
2020/12/13 06:20:28;;;;;;;60.43;28.90;;;7.70;99.90;;;;;;4978258;28;20187;-76
2020/12/13 06:22:54;;;;;;;61.70;30.10;;;7.80;99.90;;;;;;4994946;28;20617;-76
2020/12/13 06:25:20;;;;;;;65.67;29.73;;;7.80;99.90;;;;;;4993868;28;20279;-76
2020/12/13 06:27:47;;;;;;;62.83;30.03;;;7.80;99.90;;;;;;4993642;28;20263;-76
2020/12/13 06:30:14;;;;;;;58.20;30.20;;;7.80;99.90;;;;;;4993977;28;20207;-76
2020/12/13 06:32:40;;;;;;;71.33;31.03;;;7.70;99.90;;;;;;4978118;28;20187;-76
2020/12/13 06:35:06;;;;;;;66.23;31.37;;;7.70;99.90;;;;;;4977403;28;20205;-76
2020/12/13 06:37:31;;;;;;;67.63;30.63;;;7.80;99.90;;;;;;4977293;28;20176;-76
2020/12/13 06:39:57;;;;;;;61.13;29.83;;;7.80;99.90;;;;;;4993417;28;20214;-76
2020/12/13 06:42:27;;;;;;;66.60;30.77;;;7.80;99.90;;;;;;4977172;28;20173;-76
2020/12/13 06:45:11;;;;;;;72.43;32.07;;;7.70;99.90;;;;;;4993348;28;20206;-76
2020/12/13 06:47:41;;;;;;;64.10;30.30;;;7.70;99.90;;;;;;4993104;28;20191;-76
2020/12/13 06:50:12;;;;;;;58.77;29.93;;;7.80;99.90;;;;;;4993131;28;20291;-77
2020/12/13 06:52:37;;;;;;;67.27;32.10;;;7.70;99.90;;;;;;4992606;28;20227;-76
2020/12/13 06:55:05;;;;;;;63.63;27.20;;;7.70;99.90;;;;;;4976730;28;20212;-76
2020/12/13 06:57:31;;;;;;;65.40;29.73;;;7.70;99.90;;;;;;4976757;28;20653;-76
2020/12/13 06:59:57;;;;;;;67.63;30.50;;;7.70;99.90;;;;;;4993136;28;20604;-77
2020/12/13 07:03:00;;;;;;;58.67;28.80;;;7.70;99.90;;;;;;4976867;28;20184;-76
2020/12/13 07:05:48;;;;;;;59.87;29.43;;;7.70;99.90;;;;;;4992914;28;20198;-76
2020/12/13 07:08:20;;;;;;;64.43;29.60;;;7.70;99.90;;;;;;4992586;28;20195;-76
2020/12/13 07:10:49;;;;;;;67.43;30.83;;;7.70;99.90;;;;;;4976919;28;20713;-76
2020/12/13 07:13:19;;;;;;;67.93;30.67;;;7.70;99.90;;;;;;4976989;28;20179;-76
2020/12/13 07:16:28;;;;;;;69.27;30.83;;;7.70;99.90;;;;;;4976868;28;20196;-76
2020/12/13 07:18:48;;;;;;;75.53;31.13;;;7.80;99.90;;;;;;4992545;28;20180;-76
2020/12/13 07:21:15;;;;;;;86.40;31.53;;;7.80;99.90;;;;;;4975975;28;20547;-77
2020/12/13 07:23:40;;;;;;;93.33;33.00;;;7.90;99.90;;;;;;4992610;28;20178;-77
2020/12/13 07:26:06;;;;;;;86.13;33.13;;;7.90;99.90;;;;;;4992510;28;20186;-76
2020/12/13 07:28:32;;;;;;;89.93;32.17;;;7.90;99.90;;;;;;4976449;28;20178;-76
2020/12/13 07:31:00;;;;;;;95.60;33.10;;;7.80;99.90;;;;;;4992433;28;20204;-76
2020/12/13 07:33:25;;;;;;;97.07;34.27;;;7.80;99.90;;;;;;4976151;28;20183;-76
2020/12/13 07:35:51;;;;;;;100.20;33.40;;;7.90;99.90;;;;;;4992619;28;20196;-76
2020/12/13 07:38:16;;;;;;;112.10;35.23;;;7.90;99.90;;;;;;4976365;28;20180;-76
2020/12/13 07:40:42;;;;;;;123.13;35.70;;;7.90;99.90;;;;;;4992190;28;20176;-76
2020/12/13 07:43:09;;;;;;;120.03;36.67;;;7.90;99.90;;;;;;4992358;28;20547;-76
2020/12/13 07:45:35;;;;;;;133.37;38.43;;;7.90;99.90;;;;;;4992210;28;20200;-76
2020/12/13 07:48:00;;;;;;;126.77;36.43;;;7.90;99.90;;;;;;4975795;28;20188;-76
2020/12/13 07:50:28;;;;;;;134.47;38.43;;;7.90;99.90;;;;;;4975860;28;20291;-76
2020/12/13 07:52:53;;;;;;;172.63;40.83;;;7.90;99.90;;;;;;4992205;28;20187;-76
2020/12/13 07:55:19;;;;;;;172.43;43.63;;;7.90;99.90;;;;;;4991901;28;20295;-76
2020/12/13 07:57:48;;;;;;;176.63;43.60;;;7.80;99.90;;;;;;4975869;28;20203;-76
2020/12/13 08:00:13;;;;;;;151.70;39.73;;;7.90;99.90;;;;;;4975908;28;20177;-77
2020/12/13 08:02:39;;;;;;;146.43;41.93;;;7.90;99.90;;;;;;4992072;28;20263;-75
2020/12/13 08:05:05;;;;;;;137.27;40.03;;;7.90;99.90;;;;;;4991265;28;20203;-75
2020/12/13 08:07:30;;;;;;;131.27;40.10;;;8.00;99.90;;;;;;4992000;28;20186;-77
2020/12/13 08:09:57;;;;;;;140.20;40.07;;;8.10;99.90;;;;;;4992312;28;20207;-78
2020/12/13 08:12:33;;;;;;;134.80;39.70;;;8.00;99.90;;;;;;4992408;28;20168;-76
2020/12/13 08:14:58;;;;;;;122.33;39.67;;;8.10;99.90;;;;;;4975860;28;20253;-81
2020/12/13 08:17:24;;;;;;;136.50;40.90;;;8.20;99.90;;;;;;4975538;28;20188;-77
2020/12/13 08:19:54;;;;;;;113.70;38.87;;;8.10;99.90;;;;;;4991870;28;20191;-76
2020/12/13 08:22:23;;;;;;;117.40;39.93;;;8.10;99.90;;;;;;4992087;28;20176;-75
2020/12/13 08:25:02;;;;;;;113.03;39.07;;;8.10;99.90;;;;;;4991966;28;20199;-77
2020/12/13 08:27:29;;;;;;;124.07;39.60;;;8.20;99.90;;;;;;4975472;28;20188;-76
2020/12/13 08:29:56;;;;;;;97.77;36.80;;;8.20;99.90;;;;;;4991417;28;20206;-78
2020/12/13 08:32:23;;;;;;;103.53;38.20;;;8.20;99.90;;;;;;4975278;28;20172;-78
2020/12/13 08:34:48;;;;;;;120.67;39.00;;;8.20;99.90;;;;;;4975374;28;20251;-77
2020/12/13 08:37:23;;;;;;;113.90;39.20;;;8.20;99.90;;;;;;4975460;28;20180;-78
2020/12/13 08:39:48;;;;;;;95.17;36.07;;;8.10;99.90;;;;;;4991511;28;20657;-77
2020/12/13 08:42:23;;;;;;;99.10;35.77;;;8.20;99.90;;;;;;4991460;28;20179;-78
2020/12/13 08:44:49;;;;;;;109.50;38.10;;;8.20;99.90;;;;;;4991745;28;20595;-80
2020/12/13 08:47:15;;;;;;;103.37;36.17;;;8.20;99.90;;;;;;4976200;28;20184;-81
2020/12/13 08:49:41;;;;;;;94.17;35.83;;;8.20;99.90;;;;;;4991324;28;20208;-77
2020/12/13 08:52:26;;;;;;;87.70;34.60;;;8.30;99.90;;;;;;4975399;28;20616;-79
2020/12/13 08:54:53;;;;;;;86.90;34.00;;;8.30;99.90;;;;;;4975232;28;20578;-78
2020/12/13 08:57:35;;;;;;;78.73;33.10;;;8.40;99.90;;;;;;4991508;28;20179;-75
2020/12/13 09:00:15;;;;;;;79.50;32.50;;;8.50;99.90;;;;;;4991349;28;20175;-77
2020/12/13 09:02:54;;;;;;;75.50;32.23;;;8.60;99.90;;;;;;4991554;28;20646;-77
2020/12/13 09:05:24;;;;;;;78.43;31.07;;;8.60;99.90;;;;;;4977200;28;20286;-77
2020/12/13 09:07:53;;;;;;;65.83;28.83;;;8.60;99.90;;;;;;4991387;28;20171;-79
2020/12/13 09:10:19;;;;;;;64.23;28.60;;;8.80;99.90;;;;;;4991354;28;20195;-77
2020/12/13 09:12:45;;;;;;;67.67;30.10;;;8.70;99.90;;;;;;4991638;28;20252;-79
2020/12/13 09:15:11;;;;;;;68.20;28.37;;;8.70;99.90;;;;;;4976431;28;20205;-78
2020/12/13 09:17:38;;;;;;;64.30;29.10;;;8.60;99.90;;;;;;4995176;28;20172;-79
2020/12/13 09:20:04;;;;;;;63.60;29.53;;;8.60;99.90;;;;;;4978838;28;20204;-78
2020/12/13 09:22:30;;;;;;;61.43;28.10;;;8.60;99.90;;;;;;4995051;28;20693;-79
2020/12/13 09:24:57;;;;;;;64.97;28.93;;;8.60;99.90;;;;;;4978983;28;20200;-79
2020/12/13 09:27:23;;;;;;;62.67;29.10;;;8.60;99.90;;;;;;4994685;28;20180;-78
2020/12/13 09:29:49;;;;;;;60.43;27.33;;;8.70;99.90;;;;;;4978937;28;20208;-78
2020/12/13 09:32:16;;;;;;;57.47;26.00;;;8.60;99.90;;;;;;4979059;28;20234;-77
2020/12/13 09:34:42;;;;;;;52.93;25.90;;;8.70;99.90;;;;;;4978471;28;20197;-78
2020/12/13 09:37:11;;;;;;;54.37;26.13;;;8.70;99.90;;;;;;4994498;28;20178;-78
2020/12/13 09:39:37;;;;;;;53.93;27.00;;;8.80;99.90;;;;;;4979066;28;20176;-78
2020/12/13 09:42:03;;;;;;;59.07;27.77;;;8.70;99.90;;;;;;4995182;28;20178;-81
2020/12/13 09:44:28;;;;;;;50.73;26.30;;;8.70;99.90;;;;;;4980722;28;20698;-79
2020/12/13 09:46:55;;;;;;;53.70;27.30;;;8.80;99.90;;;;;;4980513;28;20180;-76
2020/12/13 09:49:20;;;;;;;53.77;28.60;;;8.90;99.90;;;;;;4994717;28;20208;-79
2020/12/13 09:51:47;;;;;;;50.83;26.90;;;8.80;99.90;;;;;;4977223;28;20177;-76
2020/12/13 09:54:12;;;;;;;53.37;27.03;;;8.80;99.90;;;;;;4977865;28;20204;-77
2020/12/13 09:56:38;;;;;;;57.10;29.33;;;8.80;99.90;;;;;;4977379;28;20187;-75
2020/12/13 09:59:03;;;;;;;57.07;27.90;;;8.80;99.90;;;;;;4979752;28;20202;-79
2020/12/13 10:01:29;;;;;;;56.90;27.77;;;8.80;99.90;;;;;;4993381;28;20198;-81
2020/12/13 10:03:55;;;;;;;55.53;27.03;;;8.80;99.90;;;;;;4979386;28;20355;-81
2020/12/13 10:09:34;;;;;;;50.13;27.33;;;8.90;99.90;;;;;;4992556;28;20198;-79
2020/12/13 10:11:41;;;;;;;46.00;24.50;;;8.90;99.90;;;;;;4990070;28;20211;-79
2020/12/13 10:14:10;;;;;;;39.33;22.53;;;8.90;99.90;;;;;;4971627;28;20229;-78
2020/12/13 10:16:36;;;;;;;43.80;23.83;;;8.80;99.90;;;;;;4970484;28;20215;-77
2020/12/13 10:19:01;;;;;;;44.07;24.57;;;8.90;99.90;;;;;;4993700;28;20197;-80
2020/12/13 10:21:28;;;;;;;40.03;23.13;;;8.90;99.90;;;;;;4960282;28;20185;-79
2020/12/13 10:23:54;;;;;;;40.47;23.33;;;8.90;99.90;;;;;;4977171;28;20214;-77
2020/12/13 10:26:27;;;;;;;41.37;24.30;;;8.80;99.90;;;;;;4994378;28;20191;-77
2020/12/13 10:28:53;;;;;;;38.83;22.63;;;8.80;99.90;;;;;;4978201;28;20223;-79
2020/12/13 10:31:19;;;;;;;38.90;22.53;;;8.80;99.90;;;;;;4962235;28;20169;-77
2020/12/13 10:33:45;;;;;;;41.20;22.77;;;8.90;99.90;;;;;;4978580;28;20200;-81
2020/12/13 10:36:11;;;;;;;44.40;24.57;;;8.80;99.90;;;;;;4961525;28;20184;-77
2020/12/13 10:38:37;;;;;;;45.40;24.83;;;8.80;99.90;;;;;;4991247;28;20560;-78
2020/12/13 10:41:09;;;;;;;42.87;25.80;;;8.80;99.90;;;;;;4991006;28;20213;-79
2020/12/13 10:43:35;;;;;;;40.37;24.47;;;8.80;99.90;;;;;;4992609;28;20556;-76
2020/12/13 10:46:05;;;;;;;45.00;25.47;;;8.80;99.90;;;;;;4975406;28;20184;-77
2020/12/13 10:48:30;;;;;;;46.00;26.23;;;8.80;99.90;;;;;;4995038;28;20177;-80
2020/12/13 10:50:56;;;;;;;43.53;25.47;;;8.80;99.90;;;;;;4995566;28;20231;-78
2020/12/13 10:53:21;;;;;;;44.67;25.17;;;8.90;99.90;;;;;;4982935;28;20208;-77
2020/12/13 10:55:47;;;;;;;42.80;25.03;;;8.90;99.90;;;;;;4977809;28;20216;-78
2020/12/13 10:58:12;;;;;;;44.27;25.93;;;8.90;99.90;;;;;;4981739;28;20211;-78
2020/12/13 11:00:38;;;;;;;43.10;25.17;;;8.90;99.90;;;;;;4980187;28;20184;-81
2020/12/13 11:03:03;;;;;;;42.20;24.97;;;8.90;99.90;;;;;;4992132;28;20192;-79
2020/12/13 11:05:29;;;;;;;42.53;25.90;;;8.90;99.90;;;;;;4976895;28;20208;-77
2020/12/13 11:07:55;;;;;;;40.03;24.13;;;8.90;99.90;;;;;;4973199;28;20663;-78
2020/12/13 11:10:20;;;;;;;44.63;25.93;;;8.90;99.90;;;;;;4973776;28;20205;-79
2020/12/13 11:12:46;;;;;;;39.63;24.70;;;8.90;99.90;;;;;;4974013;28;20261;-77
2020/12/13 11:15:11;;;;;;;40.33;24.50;;;9.00;99.90;;;;;;4989914;28;20214;-77
2020/12/13 11:17:37;;;;;;;40.63;23.63;;;9.00;99.90;;;;;;4976431;28;20176;-78
2020/12/13 11:20:03;;;;;;;40.17;24.13;;;9.00;99.90;;;;;;4993384;28;20571;-81
2020/12/13 11:22:29;;;;;;;37.00;21.87;;;9.20;99.90;;;;;;4977312;28;20861;-76
2020/12/13 11:24:54;;;;;;;37.33;23.07;;;9.10;99.90;;;;;;4995300;28;20196;-81
2020/12/13 11:27:20;;;;;;;33.80;22.57;;;9.10;99.90;;;;;;4994322;28;20195;-77
2020/12/13 11:29:45;;;;;;;35.83;22.73;;;9.10;99.90;;;;;;4993602;28;20206;-76
2020/12/13 11:32:11;;;;;;;36.97;19.13;;;9.00;99.90;;;;;;4993928;28;20263;-80
2020/12/13 11:34:36;;;;;;;32.77;20.37;;;9.00;99.90;;;;;;4979172;28;20227;-76
2020/12/13 11:37:06;;;;;;;32.33;20.47;;;8.90;99.90;;;;;;4961509;28;20215;-80
2020/12/13 11:39:32;;;;;;;32.30;19.73;;;8.80;99.90;;;;;;4961013;28;20180;-81
2020/12/13 11:42:00;;;;;;;32.50;19.17;;;8.80;99.90;;;;;;4992614;28;20566;-80
2020/12/13 11:44:26;;;;;;;30.10;18.30;;;8.80;99.90;;;;;;4960290;28;20236;-80
2020/12/13 11:46:52;;;;;;;28.83;19.00;;;8.80;99.90;;;;;;4960018;28;20219;-78
2020/12/13 11:49:18;;;;;;;30.70;18.33;;;8.80;99.90;;;;;;4960382;28;20216;-77
2020/12/13 11:51:43;;;;;;;26.70;18.20;;;8.90;99.90;;;;;;4959416;28;20192;-76
2020/12/13 11:54:09;;;;;;;27.47;18.30;;;8.90;99.90;;;;;;4974135;28;20682;-75
2020/12/13 11:56:35;;;;;;;27.97;19.80;;;9.00;99.90;;;;;;4976395;28;20176;-80
2020/12/13 11:59:01;;;;;;;29.27;19.00;;;8.90;99.90;;;;;;4989425;28;20215;-82
2020/12/13 12:01:26;;;;;;;27.87;18.63;;;8.80;99.90;;;;;;4976307;28;20662;-79
2020/12/13 12:03:52;;;;;;;24.43;17.73;;;9.00;99.90;;;;;;4996309;28;20222;-80
2020/12/13 12:06:17;;;;;;;25.77;16.60;;;8.90;99.90;;;;;;5000764;28;20188;-79
2020/12/13 12:08:45;;;;;;;24.07;16.10;;;8.80;99.90;;;;;;4994361;28;20269;-81
2020/12/13 12:11:20;;;;;;;25.57;17.60;;;8.90;99.90;;;;;;4987688;28;20172;-81
2020/12/13 12:13:46;;;;;;;23.93;16.57;;;8.90;99.90;;;;;;4992582;28;20199;-83
2020/12/13 12:16:12;;;;;;;23.30;17.57;;;8.90;99.90;;;;;;4992718;28;20655;-82
2020/12/13 12:18:37;;;;;;;23.23;18.00;;;8.90;99.90;;;;;;4977203;28;20176;-80
2020/12/13 12:21:13;;;;;;;28.43;18.47;;;8.90;99.90;;;;;;4976284;28;20601;-74
2020/12/13 12:23:39;;;;;;;26.23;18.17;;;8.90;99.90;;;;;;4976080;28;20258;-77
2020/12/13 12:26:05;;;;;;;24.10;17.57;;;8.90;99.90;;;;;;4983308;28;20231;-77
2020/12/13 12:28:30;;;;;;;27.30;18.93;;;8.90;99.90;;;;;;4963965;28;20183;-80
2020/12/13 12:30:56;;;;;;;27.80;19.03;;;8.90;99.90;;;;;;4974716;28;20207;-80
2020/12/13 12:33:21;;;;;;;27.83;19.20;;;8.90;99.90;;;;;;4958075;28;20207;-83
2020/12/13 12:35:47;;;;;;;26.53;17.83;;;9.00;99.90;;;;;;4992264;28;20287;-77
2020/12/13 12:38:12;;;;;;;25.23;18.33;;;9.00;99.90;;;;;;4976252;28;20223;-80
2020/12/13 12:40:38;;;;;;;25.23;16.70;;;8.80;99.90;;;;;;4975730;28;20230;-79
2020/12/13 12:43:03;;;;;;;24.90;17.23;;;8.80;99.90;;;;;;4976169;28;20235;-80